createdAt,value
2023-04-15T00:02:17.440Z,48.00
2023-04-15T00:04:48.667Z,46.55
2023-04-15T00:07:19.531Z,39.25
2023-04-15T00:09:51.961Z,33.55
2023-04-15T00:12:23.728Z,34.45
2023-04-15T00:14:53.536Z,34.95
2023-04-15T00:17:23.652Z,27.48
2023-04-15T00:19:53.336Z,28.85
2023-04-15T00:22:23.082Z,26.10
2023-04-15T00:24:52.958Z,29.42
2023-04-15T00:27:22.582Z,21.35
2023-04-15T00:29:52.276Z,27.23
2023-04-15T00:32:22.469Z,28.88
2023-04-15T00:34:52.637Z,30.42
2023-04-15T00:37:24.935Z,26.65
2023-04-15T00:39:54.634Z,30.83
2023-04-15T00:42:24.533Z,25.50
2023-04-15T00:44:56.591Z,31.00
2023-04-15T00:47:26.741Z,21.42
2023-04-15T00:49:56.323Z,27.52
2023-04-15T00:52:32.699Z,18.85
2023-04-15T00:55:06.505Z,19.10
2023-04-15T00:57:36.460Z,20.25
2023-04-15T01:00:09.536Z,26.27
2023-04-15T01:02:39.976Z,22.13
2023-04-15T01:05:10.123Z,17.27
2023-04-15T01:07:39.826Z,23.42
2023-04-15T01:10:10.081Z,19.05
2023-04-15T01:12:41.100Z,22.20
2023-04-15T01:15:12.566Z,22.40
2023-04-15T01:17:42.678Z,19.55
2023-04-15T01:20:13.827Z,25.73
2023-04-15T01:22:43.652Z,24.63
2023-04-15T01:25:18.402Z,24.10
2023-04-15T01:27:48.172Z,21.25
2023-04-15T01:30:17.967Z,17.33
2023-04-15T01:32:47.602Z,22.35
2023-04-15T01:35:17.213Z,20.75
2023-04-15T01:37:47.844Z,23.17
2023-04-15T01:40:18.165Z,17.23
2023-04-15T01:42:48.707Z,27.65
2023-04-15T01:45:19.069Z,18.77
2023-04-15T01:47:53.919Z,21.10
2023-04-15T01:50:23.560Z,18.85
2023-04-15T01:52:53.668Z,25.58
2023-04-15T01:55:26.598Z,24.42
2023-04-15T01:57:57.579Z,28.42
2023-04-15T02:00:27.337Z,24.38
2023-04-15T02:02:59.546Z,21.52
2023-04-15T02:05:29.354Z,22.05
2023-04-15T02:08:02.599Z,26.00
2023-04-15T02:10:32.730Z,25.88
2023-04-15T02:13:02.726Z,19.00
2023-04-15T02:15:32.478Z,25.02
2023-04-15T02:18:02.782Z,23.13
2023-04-15T02:20:35.903Z,20.33
2023-04-15T02:23:08.795Z,24.25
2023-04-15T02:25:53.423Z,28.70
2023-04-15T02:28:29.964Z,28.60
2023-04-15T02:31:01.349Z,23.90
2023-04-15T02:33:34.128Z,34.42
2023-04-15T02:36:03.985Z,24.20
2023-04-15T02:38:34.580Z,27.30
2023-04-15T02:41:04.538Z,27.38
2023-04-15T02:43:36.794Z,34.08
2023-04-15T02:46:09.322Z,30.25
2023-04-15T02:48:45.049Z,27.35
2023-04-15T02:51:21.219Z,24.80
2023-04-15T02:53:51.582Z,29.10
2023-04-15T02:56:21.310Z,28.35
2023-04-15T02:58:52.327Z,32.53
2023-04-15T03:01:22.151Z,27.33
2023-04-15T03:03:51.940Z,32.08
2023-04-15T03:06:21.666Z,33.17
2023-04-15T03:08:58.613Z,27.42
2023-04-15T03:11:35.406Z,27.30
2023-04-15T03:14:06.019Z,33.35
2023-04-15T03:16:35.788Z,26.20
2023-04-15T03:19:05.631Z,36.00
2023-04-15T03:21:35.245Z,31.55
2023-04-15T03:24:05.081Z,33.80
2023-04-15T03:26:34.935Z,38.38
2023-04-15T03:29:13.354Z,31.63
2023-04-15T03:31:46.105Z,30.63
2023-04-15T03:34:18.809Z,35.05
2023-04-15T03:36:49.114Z,37.03
2023-04-15T03:39:21.977Z,26.98
2023-04-15T03:41:51.769Z,33.38
2023-04-15T03:44:21.524Z,31.90
2023-04-15T03:46:51.184Z,27.08
2023-04-15T03:49:21.431Z,37.00
2023-04-15T03:51:51.138Z,27.77
2023-04-15T03:54:24.304Z,30.15
2023-04-15T03:56:54.024Z,31.25
2023-04-15T03:59:23.842Z,37.50
2023-04-15T04:01:53.811Z,40.83
2023-04-15T04:04:25.748Z,38.05
2023-04-15T04:06:55.409Z,34.72
2023-04-15T04:09:25.149Z,34.40
2023-04-15T04:11:54.882Z,34.00
2023-04-15T04:14:32.993Z,32.22
2023-04-15T04:17:06.007Z,36.70
2023-04-15T04:19:38.873Z,34.15
2023-04-15T04:22:08.766Z,36.60
2023-04-15T04:24:38.452Z,34.58
2023-04-15T04:27:08.170Z,30.63
2023-04-15T04:29:37.789Z,31.88
2023-04-15T04:32:07.757Z,29.90
2023-04-15T04:34:37.716Z,30.15
2023-04-15T04:37:08.854Z,36.10
2023-04-15T04:39:38.540Z,33.83
2023-04-15T04:42:08.143Z,38.67
2023-04-15T04:44:37.784Z,28.00
2023-04-15T04:47:10.255Z,35.83
2023-04-15T04:49:40.175Z,31.88
2023-04-15T04:52:09.788Z,38.30
2023-04-15T04:54:39.371Z,29.88
2023-04-15T04:57:09.717Z,31.42
2023-04-15T04:59:39.613Z,30.10
2023-04-15T05:02:09.819Z,33.55
2023-04-15T05:04:39.468Z,34.22
2023-04-15T05:07:09.788Z,36.67
2023-04-15T05:09:39.488Z,35.83
2023-04-15T05:12:10.572Z,33.80
2023-04-15T05:14:41.377Z,39.50
2023-04-15T05:17:11.298Z,32.95
2023-04-15T05:19:40.931Z,36.92
2023-04-15T05:22:10.819Z,37.85
2023-04-15T05:24:40.558Z,46.28
2023-04-15T05:27:14.710Z,45.13
2023-04-15T05:29:47.483Z,46.33
2023-04-15T05:32:17.259Z,45.63
2023-04-15T05:34:47.134Z,44.17
2023-04-15T05:37:17.258Z,30.85
2023-04-15T05:39:46.967Z,34.25
2023-04-15T05:42:17.080Z,41.38
2023-04-15T05:44:46.822Z,43.38
2023-04-15T05:47:19.544Z,34.78
2023-04-15T05:49:49.222Z,32.33
2023-04-15T05:52:19.001Z,41.20
2023-04-15T05:54:48.662Z,42.90
2023-04-15T05:57:18.340Z,39.05
2023-04-15T05:59:48.273Z,34.65
2023-04-15T06:02:17.995Z,45.63
2023-04-15T06:04:50.931Z,43.65
2023-04-15T06:07:20.672Z,45.75
2023-04-15T06:09:50.289Z,36.75
2023-04-15T06:12:20.011Z,42.70
2023-04-15T06:14:49.678Z,41.08
2023-04-15T06:17:22.709Z,42.80
2023-04-15T06:19:57.068Z,38.90
2023-04-15T06:22:29.905Z,46.83
2023-04-15T06:24:59.964Z,38.08
2023-04-15T06:27:30.292Z,35.63
2023-04-15T06:30:06.328Z,40.88
2023-04-15T06:32:39.242Z,43.05
2023-04-15T06:35:09.191Z,43.05
2023-04-15T06:37:38.842Z,40.42
2023-04-15T06:40:12.272Z,47.45
2023-04-15T06:42:42.197Z,36.72
2023-04-15T06:45:12.298Z,34.97
2023-04-15T06:47:43.407Z,43.60
2023-04-15T06:50:13.431Z,36.13
2023-04-15T06:52:43.443Z,43.38
2023-04-15T06:55:16.739Z,39.03
2023-04-15T06:57:46.606Z,45.47
2023-04-15T07:00:19.256Z,36.85
2023-04-15T07:02:51.523Z,42.53
2023-04-15T07:05:21.716Z,34.00
2023-04-15T07:07:52.780Z,41.38
2023-04-15T07:10:23.328Z,46.90
2023-04-15T07:12:59.180Z,38.88
2023-04-15T07:15:28.854Z,42.03
2023-04-15T07:17:58.675Z,41.78
2023-04-15T07:20:28.826Z,41.05
2023-04-15T07:22:59.078Z,41.17
2023-04-15T07:25:29.037Z,41.33
2023-04-15T07:27:58.757Z,40.88
2023-04-15T07:30:28.395Z,32.13
2023-04-15T07:33:01.325Z,41.95
2023-04-15T07:35:31.060Z,35.70
2023-04-15T07:38:03.864Z,39.65
2023-04-15T07:40:36.777Z,47.20
2023-04-15T07:43:06.887Z,46.75
2023-04-15T07:45:39.454Z,45.03
2023-04-15T07:48:09.950Z,40.75
2023-04-15T07:50:39.734Z,46.38
2023-04-15T07:53:09.923Z,48.42
2023-04-15T07:55:40.065Z,45.55
2023-04-15T07:58:09.788Z,39.85
2023-04-15T08:00:42.295Z,42.45
2023-04-15T08:03:12.125Z,46.20
2023-04-15T08:05:41.949Z,40.58
2023-04-15T08:08:12.013Z,47.63
2023-04-15T08:10:41.715Z,41.03
2023-04-15T08:13:11.312Z,46.58
2023-04-15T08:15:40.989Z,42.17
2023-04-15T08:18:10.849Z,49.25
2023-04-15T08:20:43.476Z,34.95
2023-04-15T08:23:13.134Z,36.42
2023-04-15T08:25:42.797Z,45.33
2023-04-15T08:28:12.937Z,40.55
2023-04-15T08:30:42.920Z,43.90
2023-04-15T08:33:12.664Z,44.85
2023-04-15T08:35:46.882Z,34.38
2023-04-15T08:38:16.542Z,31.30
2023-04-15T08:40:55.290Z,42.97
2023-04-15T08:43:28.206Z,46.65
2023-04-15T08:46:01.558Z,45.83
2023-04-15T08:48:37.418Z,42.80
2023-04-15T08:51:07.135Z,39.95
2023-04-15T08:53:37.040Z,46.13
2023-04-15T08:56:10.400Z,44.83
2023-04-15T08:58:41.259Z,49.20
2023-04-15T09:01:11.001Z,44.22
2023-04-15T09:03:41.532Z,48.35
2023-04-15T09:06:11.489Z,54.95
2023-04-15T09:08:41.136Z,45.10
2023-04-15T09:11:13.902Z,46.15
2023-04-15T09:13:46.485Z,39.15
2023-04-15T09:16:17.364Z,44.60
2023-04-15T09:18:47.236Z,40.92
2023-04-15T09:21:20.805Z,47.25
2023-04-15T09:24:04.488Z,37.70
2023-04-15T09:26:38.969Z,45.15
2023-04-15T09:29:16.039Z,48.17
2023-04-15T09:31:45.782Z,41.97
2023-04-15T09:34:15.361Z,36.80
2023-04-15T09:36:51.656Z,45.50
2023-04-15T09:39:21.579Z,40.80
2023-04-15T09:42:08.433Z,42.67
2023-04-15T09:44:38.247Z,41.47
2023-04-15T09:47:08.486Z,40.72
2023-04-15T09:49:38.583Z,39.05
2023-04-15T09:52:08.256Z,40.05
2023-04-15T09:54:41.297Z,38.65
2023-04-15T09:57:14.925Z,44.70
2023-04-15T09:59:45.323Z,35.42
2023-04-15T10:02:16.317Z,41.22
2023-04-15T10:04:46.488Z,42.08
2023-04-15T10:07:16.408Z,42.40
2023-04-15T10:09:50.723Z,50.67
2023-04-15T10:12:20.872Z,44.22
2023-04-15T10:15:01.885Z,43.38
2023-04-15T10:17:38.574Z,40.67
2023-04-15T10:20:09.264Z,47.63
2023-04-15T10:22:39.277Z,46.80
2023-04-15T10:25:09.369Z,47.40
2023-04-15T10:27:39.036Z,43.30
2023-04-15T10:30:09.396Z,35.47
2023-04-15T10:32:43.024Z,48.63
2023-04-15T10:35:21.972Z,44.37
2023-04-15T10:37:51.629Z,53.78
2023-04-15T10:40:33.038Z,39.50
2023-04-15T10:43:07.704Z,39.13
2023-04-15T10:48:11.082Z,52.00
2023-04-15T10:50:41.083Z,46.55
2023-04-15T10:53:23.553Z,40.80
2023-04-15T10:55:53.505Z,48.95
2023-04-15T10:58:29.037Z,47.20
2023-04-15T11:01:01.648Z,48.97
2023-04-15T11:03:42.427Z,50.05
2023-04-15T11:06:13.706Z,45.47
2023-04-15T11:09:00.799Z,40.58
2023-04-15T11:12:10.054Z,51.30
2023-04-15T11:14:47.652Z,45.72
2023-04-15T11:17:17.604Z,40.00
2023-04-15T11:19:47.309Z,38.03
2023-04-15T11:22:17.097Z,52.83
2023-04-15T11:24:56.616Z,43.08
2023-04-15T11:27:26.559Z,39.45
2023-04-15T11:29:56.229Z,43.50
2023-04-15T11:32:31.942Z,44.47
2023-04-15T11:35:01.690Z,41.05
2023-04-15T11:37:33.187Z,42.42
2023-04-15T11:40:05.898Z,45.85
2023-04-15T11:42:49.065Z,39.40
2023-04-15T11:45:18.951Z,42.35
2023-04-15T11:47:55.306Z,44.92
2023-04-15T11:50:29.033Z,43.50
2023-04-15T11:53:08.145Z,46.08
2023-04-15T11:55:54.938Z,50.83
2023-04-15T11:58:29.394Z,37.05
2023-04-15T12:01:09.379Z,40.15
2023-04-15T12:03:48.432Z,51.00
2023-04-15T12:06:25.270Z,42.97
2023-04-15T12:08:57.666Z,41.75
2023-04-15T12:11:35.419Z,46.15
2023-04-15T12:14:32.079Z,42.40
2023-04-15T12:17:08.437Z,48.15
2023-04-15T12:19:50.398Z,47.70
2023-04-15T12:22:21.496Z,34.33
2023-04-15T12:24:58.959Z,44.65
2023-04-15T12:27:30.007Z,48.72
2023-04-15T12:30:09.633Z,48.33
2023-04-15T12:32:40.458Z,42.30
2023-04-15T12:35:11.968Z,35.25
2023-04-15T12:37:44.585Z,55.28
2023-04-15T12:40:14.327Z,45.97
2023-04-15T12:42:43.967Z,50.55
2023-04-15T12:45:16.347Z,57.70
2023-04-15T12:47:46.089Z,48.88
2023-04-15T12:50:15.846Z,49.28
2023-04-15T12:52:48.200Z,51.35
2023-04-15T12:55:18.836Z,48.83
2023-04-15T12:57:48.742Z,55.45
2023-04-15T13:00:21.075Z,53.30
2023-04-15T13:02:50.882Z,46.45
2023-04-15T13:05:20.913Z,50.80
2023-04-15T13:07:50.541Z,56.65
2023-04-15T13:10:20.312Z,52.78
2023-04-15T13:12:58.388Z,50.97
2023-04-15T13:15:28.057Z,54.42
2023-04-15T13:17:58.410Z,59.92
2023-04-15T13:20:29.054Z,66.03
2023-04-15T13:22:58.739Z,55.95
2023-04-15T13:25:28.632Z,62.53
2023-04-15T13:27:59.203Z,55.60
2023-04-15T13:30:43.406Z,56.10
2023-04-15T13:33:14.204Z,58.50
2023-04-15T13:35:44.706Z,48.17
2023-04-15T13:38:17.023Z,56.05
2023-04-15T13:40:46.974Z,60.08
2023-04-15T13:43:17.215Z,57.30
2023-04-15T13:45:48.415Z,61.95
2023-04-15T13:48:18.099Z,65.97
2023-04-15T13:50:47.820Z,56.42
2023-04-15T13:53:20.683Z,53.83
2023-04-15T13:56:06.747Z,63.10
2023-04-15T13:58:36.429Z,54.67
2023-04-15T14:01:09.302Z,57.88
2023-04-15T14:03:39.636Z,54.63
2023-04-15T14:06:09.810Z,64.47
2023-04-15T14:08:39.423Z,63.92
2023-04-15T14:11:12.023Z,68.22
2023-04-15T14:13:41.927Z,64.45
2023-04-15T14:16:11.619Z,67.95
2023-04-15T14:18:42.557Z,73.30
2023-04-15T14:21:15.339Z,67.32
2023-04-15T14:23:45.321Z,54.42
2023-04-15T14:26:15.740Z,81.82
2023-04-15T14:28:46.931Z,58.60
2023-04-15T14:31:16.758Z,65.78
2023-04-15T14:33:46.433Z,77.47
2023-04-15T14:36:16.029Z,80.57
2023-04-15T14:38:48.733Z,70.88
2023-04-15T14:41:19.009Z,68.10
2023-04-15T14:43:48.683Z,70.65
2023-04-15T14:46:18.610Z,61.63
2023-04-15T14:48:48.234Z,71.40
2023-04-15T14:51:18.771Z,68.55
2023-04-15T14:53:48.641Z,67.43
2023-04-15T14:56:18.296Z,65.75
2023-04-15T14:58:47.983Z,70.63
2023-04-15T15:01:17.886Z,68.55
2023-04-15T15:03:47.861Z,69.90
2023-04-15T15:06:17.959Z,69.65
2023-04-15T15:08:50.937Z,71.57
2023-04-15T15:11:20.600Z,76.85
2023-04-15T15:13:52.745Z,72.90
2023-04-15T15:16:25.471Z,74.53
2023-04-15T15:18:55.197Z,78.82
2023-04-15T15:21:25.379Z,74.65
2023-04-15T15:23:57.641Z,90.32
2023-04-15T15:26:29.917Z,75.32
2023-04-15T15:28:59.631Z,74.50
2023-04-15T15:31:29.493Z,79.28
2023-04-15T15:33:59.438Z,74.07
2023-04-15T15:36:29.777Z,79.13
2023-04-15T15:39:00.971Z,77.80
2023-04-15T15:41:31.613Z,76.47
2023-04-15T15:44:06.813Z,76.53
2023-04-15T15:46:36.572Z,71.82
2023-04-15T15:49:06.479Z,91.28
2023-04-15T15:51:39.292Z,84.80
2023-04-15T15:54:08.975Z,85.32
2023-04-15T15:56:39.989Z,74.90
2023-04-15T15:59:10.308Z,78.45
2023-04-15T16:01:40.009Z,75.78
2023-04-15T16:04:11.837Z,80.03
2023-04-15T16:06:42.376Z,79.85
2023-04-15T16:09:12.258Z,81.13
2023-04-15T16:11:42.913Z,74.10
2023-04-15T16:14:12.756Z,91.55
2023-04-15T16:16:42.648Z,78.03
2023-04-15T16:19:13.050Z,84.88
2023-04-15T16:21:42.951Z,98.13
2023-04-15T16:24:15.424Z,88.43
2023-04-15T16:26:45.095Z,97.88
2023-04-15T16:29:14.786Z,94.53
2023-04-15T16:31:44.435Z,91.35
2023-04-15T16:34:14.236Z,96.63
2023-04-15T16:36:44.006Z,79.20
2023-04-15T16:39:13.698Z,80.60
2023-04-15T16:41:44.427Z,90.63
2023-04-15T16:44:14.043Z,89.15
2023-04-15T16:46:43.720Z,91.70
2023-04-15T16:49:13.516Z,78.45
2023-04-15T16:51:43.214Z,90.28
2023-04-15T16:54:13.385Z,83.95
2023-04-15T16:56:43.127Z,85.97
2023-04-15T16:59:15.500Z,83.30
2023-04-15T17:01:45.931Z,84.05
2023-04-15T17:04:15.844Z,80.20
2023-04-15T17:06:51.935Z,85.03
2023-04-15T17:09:21.587Z,88.72
2023-04-15T17:11:51.256Z,92.70
2023-04-15T17:14:24.027Z,89.40
2023-04-15T17:16:53.612Z,102.30
2023-04-15T17:19:32.576Z,96.90
2023-04-15T17:22:02.736Z,96.78
2023-04-15T17:24:35.148Z,95.28
2023-04-15T17:27:04.813Z,79.65
2023-04-15T17:29:35.089Z,82.50
2023-04-15T17:32:05.248Z,89.82
2023-04-15T17:34:49.819Z,95.00
2023-04-15T17:37:20.590Z,85.65
2023-04-15T17:39:50.251Z,96.00
2023-04-15T17:42:20.021Z,96.45
2023-04-15T17:44:49.669Z,105.55
2023-04-15T17:47:21.957Z,97.32
2023-04-15T17:49:51.505Z,94.03
2023-04-15T17:52:21.747Z,110.97
2023-04-15T17:54:51.810Z,107.43
2023-04-15T17:57:22.480Z,91.60
2023-04-15T17:59:52.285Z,95.97
2023-04-15T18:02:22.238Z,94.63
2023-04-15T18:04:52.699Z,100.32
2023-04-15T18:07:22.753Z,106.60
2023-04-15T18:09:52.554Z,105.28
2023-04-15T18:12:22.294Z,94.43
2023-04-15T18:14:52.009Z,105.85
2023-04-15T18:17:21.977Z,94.22
2023-04-15T18:19:55.010Z,108.65
2023-04-15T18:22:27.405Z,90.72
2023-04-15T18:24:59.285Z,90.05
2023-04-15T18:27:30.090Z,83.93
2023-04-15T18:29:59.907Z,98.78
2023-04-15T18:32:31.937Z,88.43
2023-04-15T18:35:05.945Z,90.40
2023-04-15T18:37:35.636Z,99.75
2023-04-15T18:40:05.368Z,93.47
2023-04-15T18:42:35.031Z,99.72
2023-04-15T18:45:05.339Z,89.53
2023-04-15T18:47:35.341Z,85.13
2023-04-15T18:50:05.218Z,98.35
2023-04-15T18:52:35.670Z,93.00
2023-04-15T18:55:12.417Z,94.40
2023-04-15T18:57:45.811Z,90.95
2023-04-15T19:00:20.125Z,103.90
2023-04-15T19:02:50.012Z,83.97
2023-04-15T19:05:19.926Z,91.28
2023-04-15T19:07:49.940Z,84.55
2023-04-15T19:10:19.684Z,82.13
2023-04-15T19:12:49.256Z,91.45
2023-04-15T19:15:19.054Z,94.55
2023-04-15T19:17:48.942Z,91.22
2023-04-15T19:20:19.348Z,86.28
2023-04-15T19:22:49.097Z,97.97
2023-04-15T19:25:18.853Z,86.07
2023-04-15T19:27:49.045Z,90.47
2023-04-15T19:30:19.124Z,99.45
2023-04-15T19:32:48.907Z,90.68
2023-04-15T19:35:19.026Z,96.97
2023-04-15T19:37:49.884Z,104.57
2023-04-15T19:40:19.584Z,100.28
2023-04-15T19:42:49.318Z,91.03
2023-04-15T19:45:19.018Z,108.80
2023-04-15T19:47:48.691Z,97.43
2023-04-15T19:50:18.543Z,94.90
2023-04-15T19:52:48.551Z,107.18
2023-04-15T19:55:18.467Z,91.75
2023-04-15T19:57:48.159Z,90.15
2023-04-15T20:00:23.320Z,93.88
2023-04-15T20:02:53.158Z,82.57
2023-04-15T20:05:22.989Z,87.35
2023-04-15T20:07:56.354Z,90.38
2023-04-15T20:10:27.226Z,80.43
2023-04-15T20:12:57.194Z,85.63
2023-04-15T20:15:26.870Z,80.35
2023-04-15T20:17:56.592Z,79.72
2023-04-15T20:20:26.316Z,84.80
2023-04-15T20:22:56.342Z,93.45
2023-04-15T20:25:26.059Z,82.82
2023-04-15T20:27:55.736Z,82.85
2023-04-15T20:30:25.365Z,83.35
2023-04-15T20:32:55.038Z,78.28
2023-04-15T20:35:24.926Z,81.75
2023-04-15T20:37:54.776Z,81.13
2023-04-15T20:40:27.395Z,80.57
2023-04-15T20:42:57.485Z,80.63
2023-04-15T20:45:27.275Z,92.32
2023-04-15T20:47:57.653Z,78.43
2023-04-15T20:50:27.398Z,94.35
2023-04-15T20:52:57.699Z,78.43
2023-04-15T20:55:28.956Z,85.95
2023-04-15T20:58:02.963Z,95.38
2023-04-15T21:00:34.521Z,90.10
2023-04-15T21:03:07.442Z,92.35
2023-04-15T21:05:40.140Z,74.70
2023-04-15T21:08:11.259Z,82.25
2023-04-15T21:10:44.011Z,88.20
2023-04-15T21:13:14.688Z,85.63
2023-04-15T21:15:45.260Z,81.13
2023-04-15T21:18:17.941Z,79.88
2023-04-15T21:20:48.037Z,78.45
2023-04-15T21:23:17.617Z,88.97
2023-04-15T21:25:47.371Z,75.55
2023-04-15T21:28:17.065Z,80.85
2023-04-15T21:30:47.432Z,80.70
2023-04-15T21:33:19.897Z,76.10
2023-04-15T21:35:49.621Z,80.85
2023-04-15T21:38:20.800Z,84.25
2023-04-15T21:40:52.771Z,76.35
2023-04-15T21:43:27.478Z,69.10
2023-04-15T21:48:47.795Z,81.00
2023-04-15T21:51:17.792Z,84.57
2023-04-15T21:53:50.302Z,80.93
2023-04-15T21:56:21.754Z,93.78
2023-04-15T21:58:51.495Z,79.43
2023-04-15T22:01:21.189Z,81.35
2023-04-15T22:03:51.776Z,83.57
2023-04-15T22:06:28.611Z,86.50
2023-04-15T22:08:58.261Z,81.20
2023-04-15T22:11:28.825Z,83.65
2023-04-15T22:13:59.715Z,89.72
2023-04-15T22:16:30.142Z,81.45
2023-04-15T22:19:02.651Z,88.25
2023-04-15T22:21:33.348Z,105.07
2023-04-15T22:24:32.973Z,88.15
2023-04-15T22:26:53.001Z,85.93
2023-04-15T22:29:22.720Z,89.32
2023-04-15T22:31:53.667Z,77.07
2023-04-15T22:34:23.560Z,80.13
2023-04-15T22:36:57.148Z,80.70
2023-04-15T22:39:29.464Z,80.20
2023-04-15T22:42:00.252Z,85.05
2023-04-15T22:44:29.882Z,86.82
2023-04-15T22:46:59.533Z,78.18
2023-04-15T22:49:29.307Z,78.68
2023-04-15T22:52:02.321Z,81.47
2023-04-15T22:54:32.988Z,80.82
2023-04-15T22:57:02.683Z,86.88
2023-04-15T22:59:32.485Z,84.60
2023-04-15T23:02:02.412Z,88.43
2023-04-15T23:04:32.658Z,86.10
2023-04-15T23:07:02.444Z,76.50
2023-04-15T23:09:32.754Z,79.28
2023-04-15T23:12:02.938Z,81.28
2023-04-15T23:14:34.782Z,78.03
2023-04-15T23:17:04.377Z,81.80
2023-04-15T23:19:35.255Z,83.80
2023-04-15T23:22:05.439Z,75.30
2023-04-15T23:24:35.127Z,90.95
2023-04-15T23:27:07.543Z,75.78
2023-04-15T23:29:37.933Z,82.95
2023-04-15T23:32:08.649Z,73.53
2023-04-15T23:34:38.311Z,75.13
2023-04-15T23:37:08.017Z,88.82
2023-04-15T23:39:37.839Z,81.28
2023-04-15T23:42:13.257Z,78.47
2023-04-15T23:44:42.858Z,91.25
2023-04-15T23:47:15.650Z,83.68
2023-04-15T23:49:45.284Z,93.20
2023-04-15T23:52:14.978Z,81.50
2023-04-15T23:54:51.373Z,77.68
2023-04-15T23:57:21.075Z,87.00
2023-04-15T23:59:50.891Z,75.45
